createdAt,value
2022-09-23T00:01:11.494Z,7.50
2022-09-23T00:03:41.924Z,12.23
2022-09-23T00:06:11.064Z,7.90
2022-09-23T00:08:37.986Z,9.57
2022-09-23T00:11:25.427Z,10.68
2022-09-23T00:13:58.097Z,11.57
2022-09-23T00:16:33.438Z,9.82
2022-09-23T00:19:01.448Z,8.45
2022-09-23T00:21:28.469Z,9.05
2022-09-23T00:23:55.306Z,10.43
2022-09-23T00:26:23.112Z,11.20
2022-09-23T00:28:50.553Z,10.50
2022-09-23T00:31:20.777Z,9.18
2022-09-23T00:33:47.733Z,9.10
2022-09-23T00:36:16.040Z,7.95
2022-09-23T00:38:46.038Z,9.80
2022-09-23T00:41:14.997Z,9.93
2022-09-23T00:43:53.559Z,8.93
2022-09-23T00:46:43.585Z,9.60
2022-09-23T00:49:30.848Z,8.20
2022-09-23T00:52:10.621Z,8.52
2022-09-23T00:54:38.116Z,9.10
2022-09-23T00:57:05.758Z,9.57
2022-09-23T00:59:32.627Z,7.40
2022-09-23T01:02:01.795Z,7.03
2022-09-23T01:04:29.828Z,9.85
2022-09-23T01:06:56.347Z,7.85
2022-09-23T01:09:24.224Z,15.52
2022-09-23T01:12:24.251Z,8.20
2022-09-23T01:15:18.587Z,8.05
2022-09-23T01:18:13.439Z,6.95
2022-09-23T01:20:59.884Z,10.07
2022-09-23T01:23:44.711Z,8.48
2022-09-23T01:26:39.033Z,9.55
2022-09-23T01:29:08.542Z,9.98
2022-09-23T01:31:43.140Z,8.35
2022-09-23T01:34:24.228Z,9.07
2022-09-23T01:37:17.638Z,10.60
2022-09-23T01:39:53.328Z,11.23
2022-09-23T01:42:43.072Z,8.90
2022-09-23T01:45:35.737Z,9.55
2022-09-23T01:48:20.626Z,8.60
2022-09-23T01:50:56.252Z,14.07
2022-09-23T01:53:36.718Z,8.98
2022-09-23T01:56:10.179Z,7.82
2022-09-23T01:58:53.899Z,8.30
2022-09-23T02:01:28.303Z,6.88
2022-09-23T02:04:18.911Z,10.77
2022-09-23T02:06:51.591Z,7.15
2022-09-23T02:09:26.736Z,9.55
2022-09-23T02:12:00.481Z,10.13
2022-09-23T02:14:32.173Z,8.88
2022-09-23T02:17:03.442Z,8.45
2022-09-23T02:19:50.601Z,10.90
2022-09-23T02:22:50.116Z,10.68
2022-09-23T02:25:17.421Z,9.70
2022-09-23T02:27:55.369Z,14.63
2022-09-23T02:30:27.187Z,8.60
2022-09-23T02:33:06.093Z,8.95
2022-09-23T02:35:48.928Z,12.55
2022-09-23T02:38:51.172Z,10.60
2022-09-23T02:41:37.835Z,12.63
2022-09-23T02:44:09.080Z,8.85
2022-09-23T02:46:37.018Z,8.50
2022-09-23T02:49:25.399Z,8.15
2022-09-23T02:51:52.172Z,8.75
2022-09-23T02:54:22.030Z,11.07
2022-09-23T02:56:51.469Z,8.70
2022-09-23T02:59:20.302Z,11.02
2022-09-23T03:02:14.192Z,10.82
2022-09-23T03:04:43.445Z,9.43
2022-09-23T03:07:29.518Z,12.60
2022-09-23T03:10:09.716Z,8.20
2022-09-23T03:12:41.404Z,8.00
2022-09-23T03:15:30.122Z,13.27
2022-09-23T03:18:35.060Z,8.82
2022-09-23T03:21:07.774Z,9.25
2022-09-23T03:23:37.100Z,8.68
2022-09-23T03:26:18.631Z,8.35
2022-09-23T03:28:45.964Z,8.93
2022-09-23T03:31:14.281Z,9.38
2022-09-23T03:33:46.889Z,9.10
2022-09-23T03:36:35.084Z,9.90
2022-09-23T03:39:08.823Z,10.48
2022-09-23T03:41:50.750Z,9.35
2022-09-23T03:44:19.489Z,10.43
2022-09-23T03:46:49.773Z,10.93
2022-09-23T03:49:27.266Z,10.65
2022-09-23T03:51:55.394Z,13.35
2022-09-23T03:54:22.241Z,7.97
2022-09-23T03:56:49.155Z,11.60
2022-09-23T03:59:16.452Z,10.85
2022-09-23T04:01:43.691Z,8.45
2022-09-23T04:04:10.692Z,11.63
2022-09-23T04:06:37.213Z,7.60
2022-09-23T04:09:03.876Z,12.73
2022-09-23T04:11:30.490Z,14.75
2022-09-23T04:13:57.013Z,9.68
2022-09-23T04:16:24.081Z,10.20
2022-09-23T04:18:51.002Z,8.85
2022-09-23T04:21:17.560Z,8.85
2022-09-23T04:23:44.112Z,7.93
2022-09-23T04:26:10.750Z,7.68
2022-09-23T04:28:37.236Z,10.10
2022-09-23T04:31:09.539Z,9.18
2022-09-23T04:33:36.363Z,12.07
2022-09-23T04:36:02.874Z,8.38
2022-09-23T04:38:29.420Z,10.10
2022-09-23T04:40:55.952Z,10.55
2022-09-23T04:43:23.424Z,14.43
2022-09-23T04:46:04.864Z,8.38
2022-09-23T04:48:32.248Z,11.73
2022-09-23T04:51:10.587Z,9.20
2022-09-23T04:53:38.546Z,8.65
2022-09-23T04:56:11.646Z,9.63
2022-09-23T04:58:39.123Z,9.77
2022-09-23T05:01:09.572Z,9.07
2022-09-23T05:03:36.272Z,11.52
2022-09-23T05:06:02.879Z,9.10
2022-09-23T05:08:29.809Z,10.93
2022-09-23T05:11:01.373Z,10.43
2022-09-23T05:13:28.172Z,8.45
2022-09-23T05:16:02.551Z,9.63
2022-09-23T05:18:33.407Z,11.60
2022-09-23T05:21:00.315Z,9.32
2022-09-23T05:23:27.852Z,8.68
2022-09-23T05:26:06.624Z,7.63
2022-09-23T05:28:34.279Z,9.38
2022-09-23T05:31:05.982Z,11.48
2022-09-23T05:33:34.178Z,8.38
2022-09-23T05:36:01.457Z,8.95
2022-09-23T05:38:31.939Z,8.73
2022-09-23T05:41:00.653Z,10.40
2022-09-23T05:43:27.929Z,8.98
2022-09-23T05:46:08.364Z,10.85
2022-09-23T05:48:36.181Z,12.23
2022-09-23T05:51:03.780Z,9.20
2022-09-23T05:53:30.906Z,9.02
2022-09-23T05:55:57.890Z,10.00
2022-09-23T05:58:25.184Z,8.88
2022-09-23T06:00:52.060Z,9.80
2022-09-23T06:03:21.165Z,14.63
2022-09-23T06:05:48.453Z,8.20
2022-09-23T06:08:15.290Z,13.18
2022-09-23T06:10:43.650Z,12.65
2022-09-23T06:13:10.633Z,10.35
2022-09-23T06:15:37.716Z,8.85
2022-09-23T06:18:05.453Z,11.32
2022-09-23T06:20:33.517Z,9.27
2022-09-23T06:23:08.973Z,9.00
2022-09-23T06:25:38.458Z,9.77
2022-09-23T06:28:06.866Z,9.32
2022-09-23T06:30:34.773Z,11.40
2022-09-23T06:33:02.013Z,9.60
2022-09-23T06:35:28.905Z,10.10
2022-09-23T06:37:55.635Z,9.50
2022-09-23T06:40:22.617Z,10.75
2022-09-23T06:42:56.748Z,11.05
2022-09-23T06:45:23.538Z,9.30
2022-09-23T06:47:56.349Z,9.60
2022-09-23T06:50:26.606Z,8.35
2022-09-23T06:52:56.205Z,16.15
2022-09-23T06:55:24.446Z,12.35
2022-09-23T06:57:51.219Z,14.10
2022-09-23T07:00:18.422Z,14.27
2022-09-23T07:02:45.498Z,8.55
2022-09-23T07:05:12.642Z,9.52
2022-09-23T07:07:39.404Z,8.85
2022-09-23T07:10:07.235Z,8.75
2022-09-23T07:12:34.206Z,7.82
2022-09-23T07:15:00.734Z,8.55
2022-09-23T07:17:27.671Z,12.60
2022-09-23T07:19:55.049Z,10.07
2022-09-23T07:22:22.531Z,7.15
2022-09-23T07:24:49.005Z,8.48
2022-09-23T07:27:19.865Z,10.30
2022-09-23T07:29:49.720Z,8.68
2022-09-23T07:32:16.891Z,8.05
2022-09-23T07:34:44.365Z,17.17
2022-09-23T07:37:10.811Z,7.63
2022-09-23T07:39:37.447Z,9.80
2022-09-23T07:42:05.233Z,10.82
2022-09-23T07:44:32.355Z,8.77
2022-09-23T07:46:59.671Z,11.60
2022-09-23T07:49:27.484Z,7.20
2022-09-23T07:51:54.420Z,7.35
2022-09-23T07:54:21.484Z,10.68
2022-09-23T07:56:48.211Z,8.63
2022-09-23T07:59:18.131Z,7.55
2022-09-23T08:01:48.337Z,7.32
2022-09-23T08:04:21.157Z,12.07
2022-09-23T08:06:50.418Z,7.60
2022-09-23T08:09:18.922Z,10.27
2022-09-23T08:11:45.441Z,11.00
2022-09-23T08:14:13.850Z,10.98
2022-09-23T08:16:41.725Z,10.75
2022-09-23T08:19:08.939Z,8.80
2022-09-23T08:21:35.629Z,9.80
2022-09-23T08:24:02.400Z,8.95
2022-09-23T08:26:29.133Z,6.50
2022-09-23T08:28:56.464Z,8.48
2022-09-23T08:31:23.617Z,7.80
2022-09-23T08:33:57.594Z,8.27
2022-09-23T08:36:25.389Z,12.82
2022-09-23T08:38:51.943Z,7.13
2022-09-23T08:41:30.280Z,6.88
2022-09-23T08:44:02.161Z,5.90
2022-09-23T08:46:34.779Z,8.75
2022-09-23T08:49:02.109Z,9.45
2022-09-23T08:51:35.588Z,15.43
2022-09-23T08:54:02.344Z,12.93
2022-09-23T08:56:30.302Z,9.60
2022-09-23T08:59:00.133Z,6.43
2022-09-23T09:01:29.618Z,13.68
2022-09-23T09:04:01.488Z,9.02
2022-09-23T09:06:53.082Z,18.90
2022-09-23T09:09:33.823Z,5.97
2022-09-23T09:12:14.153Z,11.23
2022-09-23T09:14:57.668Z,7.30
2022-09-23T09:17:36.325Z,7.90
2022-09-23T09:20:14.921Z,6.68
2022-09-23T09:22:52.650Z,7.85
2022-09-23T09:25:32.131Z,7.57
2022-09-23T09:28:01.395Z,11.85
2022-09-23T09:30:28.460Z,6.22
2022-09-23T09:33:04.204Z,9.52
2022-09-23T09:35:42.052Z,7.57
2022-09-23T09:38:08.659Z,7.03
2022-09-23T09:40:35.327Z,11.55
2022-09-23T09:43:05.703Z,7.72
2022-09-23T09:46:00.248Z,9.30
2022-09-23T09:48:37.818Z,10.18
2022-09-23T09:51:22.084Z,5.25
2022-09-23T09:53:51.932Z,7.82
2022-09-23T09:56:26.462Z,11.23
2022-09-23T09:58:58.659Z,5.22
2022-09-23T10:01:26.937Z,5.28
2022-09-23T10:03:55.726Z,8.05
2022-09-23T10:06:30.463Z,8.95
2022-09-23T10:09:05.378Z,9.45
2022-09-23T10:14:14.001Z,7.80
2022-09-23T10:16:41.573Z,11.30
2022-09-23T10:19:13.586Z,9.95
2022-09-23T10:21:42.256Z,18.05
2022-09-23T10:24:20.039Z,6.38
2022-09-23T10:26:56.118Z,9.70
2022-09-23T10:29:31.916Z,9.07
2022-09-23T10:32:28.072Z,8.43
2022-09-23T10:34:57.188Z,9.80
2022-09-23T10:37:44.925Z,5.60
2022-09-23T10:40:51.125Z,6.82
2022-09-23T10:43:55.182Z,6.05
2022-09-23T10:46:47.526Z,5.97
2022-09-23T10:49:20.196Z,6.95
2022-09-23T10:52:16.186Z,7.80
2022-09-23T10:55:04.519Z,8.15
2022-09-23T10:57:53.292Z,9.73
2022-09-23T11:00:32.562Z,5.72
2022-09-23T11:03:16.797Z,5.50
2022-09-23T11:06:02.732Z,8.32
2022-09-23T11:08:59.778Z,6.97
2022-09-23T11:11:47.286Z,4.07
2022-09-23T11:14:32.103Z,4.40
2022-09-23T11:17:18.078Z,4.95
2022-09-23T11:19:55.965Z,6.82
2022-09-23T11:22:53.189Z,6.55
2022-09-23T11:25:41.092Z,5.35
2022-09-23T11:28:10.692Z,5.22
2022-09-23T11:31:17.176Z,4.57
2022-09-23T11:34:22.354Z,7.43
2022-09-23T11:36:58.987Z,8.33
2022-09-23T11:39:35.158Z,5.47
2022-09-23T11:42:03.330Z,15.57
2022-09-23T11:44:39.604Z,4.60
2022-09-23T11:47:10.072Z,8.48
2022-09-23T11:50:03.060Z,7.28
2022-09-23T11:52:37.824Z,3.67
2022-09-23T11:55:21.213Z,4.97
2022-09-23T11:57:53.596Z,5.68
2022-09-23T12:00:20.127Z,4.40
2022-09-23T12:03:09.628Z,5.55
2022-09-23T12:05:41.680Z,4.15
2022-09-23T12:08:29.078Z,7.30
2022-09-23T12:11:24.974Z,5.00
2022-09-23T12:14:10.455Z,5.40
2022-09-23T12:17:01.823Z,4.18
2022-09-23T12:19:55.558Z,8.50
2022-09-23T12:22:43.713Z,5.60
2022-09-23T12:25:16.088Z,9.65
2022-09-23T12:27:46.025Z,7.40
2022-09-23T12:30:18.104Z,4.90
2022-09-23T12:32:44.803Z,5.05
2022-09-23T12:35:24.361Z,11.43
2022-09-23T12:37:51.945Z,7.13
2022-09-23T12:40:30.229Z,6.53
2022-09-23T12:43:01.169Z,5.78
2022-09-23T12:45:34.718Z,5.63
2022-09-23T12:48:43.525Z,7.95
2022-09-23T12:51:19.200Z,7.68
2022-09-23T12:53:50.861Z,11.45
2022-09-23T12:56:21.565Z,5.18
2022-09-23T12:58:48.158Z,4.30
2022-09-23T13:01:14.708Z,8.18
2022-09-23T13:04:09.169Z,12.57
2022-09-23T13:07:04.449Z,4.28
2022-09-23T13:09:37.583Z,5.93
2022-09-23T13:12:08.607Z,6.35
2022-09-23T13:14:37.882Z,7.50
2022-09-23T13:17:04.768Z,5.45
2022-09-23T13:19:36.603Z,10.95
2022-09-23T13:22:11.094Z,8.38
2022-09-23T13:24:42.107Z,6.82
2022-09-23T13:27:16.295Z,6.47
2022-09-23T13:29:55.695Z,10.77
2022-09-23T13:32:28.370Z,5.70
2022-09-23T13:35:15.785Z,6.32
2022-09-23T13:37:47.576Z,6.78
2022-09-23T13:40:20.952Z,5.50
2022-09-23T13:42:56.902Z,5.80
2022-09-23T13:45:25.714Z,6.38
2022-09-23T13:47:59.124Z,5.30
2022-09-23T13:50:26.615Z,7.55
2022-09-23T13:53:00.885Z,5.93
2022-09-23T13:55:37.509Z,10.40
2022-09-23T13:58:24.381Z,4.60
2022-09-23T14:00:51.434Z,4.30
2022-09-23T14:03:37.108Z,3.85
2022-09-23T14:06:08.629Z,4.18
2022-09-23T14:08:35.773Z,6.03
2022-09-23T14:11:06.265Z,4.78
2022-09-23T14:13:41.438Z,5.93
2022-09-23T14:16:11.347Z,6.45
2022-09-23T14:18:40.855Z,7.55
2022-09-23T14:21:30.409Z,3.88
2022-09-23T14:23:57.025Z,8.80
2022-09-23T14:26:24.909Z,6.50
2022-09-23T14:28:52.281Z,8.52
2022-09-23T14:31:19.040Z,4.47
2022-09-23T14:33:46.845Z,4.70
2022-09-23T14:36:35.964Z,8.73
2022-09-23T14:39:08.441Z,9.23
2022-09-23T14:41:41.402Z,5.78
2022-09-23T14:44:18.333Z,6.10
2022-09-23T14:46:56.508Z,11.23
2022-09-23T14:49:24.407Z,10.05
2022-09-23T14:52:00.703Z,6.38
2022-09-23T14:54:33.763Z,5.20
2022-09-23T14:57:02.291Z,5.65
2022-09-23T14:59:34.674Z,8.55
2022-09-23T15:02:01.812Z,10.38
2022-09-23T15:04:32.288Z,10.45
2022-09-23T15:07:16.248Z,7.65
2022-09-23T15:09:44.738Z,9.23
2022-09-23T15:12:21.157Z,5.82
2022-09-23T15:14:54.211Z,7.15
2022-09-23T15:17:30.699Z,9.98
2022-09-23T15:20:03.702Z,8.23
2022-09-23T15:22:30.279Z,8.80
2022-09-23T15:25:16.451Z,8.70
2022-09-23T15:27:56.533Z,7.38
2022-09-23T15:30:23.229Z,8.90
2022-09-23T15:32:49.743Z,7.20
2022-09-23T15:35:19.680Z,6.47
2022-09-23T15:37:49.092Z,8.30
2022-09-23T15:40:30.497Z,8.82
2022-09-23T15:43:04.931Z,5.03
2022-09-23T15:45:36.393Z,7.18
2022-09-23T15:48:10.675Z,7.43
2022-09-23T15:50:38.106Z,9.85
2022-09-23T15:53:06.013Z,5.45
2022-09-23T15:55:33.802Z,4.10
2022-09-23T15:58:00.622Z,8.27
2022-09-23T16:00:27.318Z,4.78
2022-09-23T16:02:54.107Z,6.93
2022-09-23T16:05:30.732Z,9.38
2022-09-23T16:07:57.397Z,9.43
2022-09-23T16:10:24.035Z,4.68
2022-09-23T16:12:53.614Z,4.65
2022-09-23T16:15:21.810Z,5.47
2022-09-23T16:17:48.535Z,6.50
2022-09-23T16:20:18.494Z,7.22
2022-09-23T16:22:52.964Z,6.32
2022-09-23T16:25:20.351Z,10.52
2022-09-23T16:27:46.922Z,6.65
2022-09-23T16:30:13.446Z,5.05
2022-09-23T16:32:39.875Z,6.70
2022-09-23T16:35:08.530Z,10.60
2022-09-23T16:37:35.256Z,8.20
2022-09-23T16:40:03.814Z,5.88
2022-09-23T16:42:30.285Z,11.38
2022-09-23T16:44:56.755Z,5.50
2022-09-23T16:47:23.247Z,7.80
2022-09-23T16:49:49.674Z,5.25
2022-09-23T16:52:16.998Z,9.15
2022-09-23T16:54:43.803Z,7.25
2022-09-23T16:57:10.359Z,5.60
2022-09-23T16:59:55.568Z,5.78
2022-09-23T17:02:40.807Z,5.85
2022-09-23T17:07:34.102Z,8.60
2022-09-23T17:10:00.743Z,8.13
2022-09-23T17:12:32.299Z,7.40
2022-09-23T17:14:59.181Z,6.43
2022-09-23T17:17:25.806Z,7.80
2022-09-23T17:19:52.259Z,6.85
2022-09-23T17:22:18.790Z,13.60
2022-09-23T17:24:45.259Z,7.90
2022-09-23T17:27:11.795Z,10.48
2022-09-23T17:29:38.303Z,15.13
2022-09-23T17:32:04.975Z,10.25
2022-09-23T17:34:33.348Z,9.55
2022-09-23T17:37:00.443Z,11.63
2022-09-23T17:39:27.264Z,15.48
2022-09-23T17:41:56.039Z,14.15
2022-09-23T17:44:24.181Z,13.05
2022-09-23T17:46:51.104Z,13.82
2022-09-23T17:49:18.731Z,14.20
2022-09-23T17:51:45.176Z,13.73
2022-09-23T17:54:12.242Z,12.18
2022-09-23T17:56:38.706Z,15.68
2022-09-23T17:59:05.237Z,12.65
2022-09-23T18:01:31.938Z,13.15
2022-09-23T18:04:00.354Z,13.35
2022-09-23T18:06:31.401Z,13.18
2022-09-23T18:09:01.296Z,10.93
2022-09-23T18:11:29.978Z,9.52
2022-09-23T18:14:19.617Z,9.73
2022-09-23T18:16:48.717Z,8.70
2022-09-23T18:19:17.926Z,8.15
2022-09-23T18:21:50.743Z,9.77
2022-09-23T18:24:31.997Z,12.05
2022-09-23T18:27:00.103Z,11.27
2022-09-23T18:29:27.298Z,8.15
2022-09-23T18:31:54.015Z,6.93
2022-09-23T18:34:20.769Z,8.30
2022-09-23T18:36:47.476Z,7.95
2022-09-23T18:39:13.997Z,8.85
2022-09-23T18:41:41.206Z,8.35
2022-09-23T18:44:08.956Z,10.00
2022-09-23T18:46:35.625Z,7.63
2022-09-23T18:49:21.340Z,8.18
2022-09-23T18:51:49.497Z,9.18
2022-09-23T18:54:16.071Z,7.50
2022-09-23T18:56:44.588Z,8.65
2022-09-23T18:59:17.633Z,11.00
2022-09-23T19:01:45.762Z,8.45
2022-09-23T19:04:14.244Z,9.07
2022-09-23T19:06:41.108Z,7.13
2022-09-23T19:09:08.435Z,9.05
2022-09-23T19:11:38.393Z,7.28
2022-09-23T19:14:08.152Z,7.35
2022-09-23T19:16:36.657Z,8.48
2022-09-23T19:19:05.278Z,8.10
2022-09-23T19:21:32.953Z,7.45
2022-09-23T19:24:03.693Z,11.02
2022-09-23T19:26:41.251Z,10.80
2022-09-23T19:29:13.045Z,8.95
2022-09-23T19:31:43.481Z,9.85
2022-09-23T19:34:15.847Z,10.65
2022-09-23T19:36:44.410Z,9.65
2022-09-23T19:39:20.251Z,14.05
2022-09-23T19:41:47.325Z,13.25
2022-09-23T19:44:15.195Z,12.52
2022-09-23T19:46:45.077Z,11.15
2022-09-23T19:49:12.337Z,15.13
2022-09-23T19:51:39.320Z,17.85
2022-09-23T19:54:07.822Z,15.63
2022-09-23T19:56:35.905Z,18.45
2022-09-23T19:59:05.835Z,15.07
2022-09-23T20:01:32.889Z,17.48
2022-09-23T20:04:00.524Z,19.27
2022-09-23T20:06:35.252Z,19.65
2022-09-23T20:09:02.678Z,18.83
2022-09-23T20:11:29.964Z,19.27
2022-09-23T20:14:01.774Z,19.67
2022-09-23T20:16:33.711Z,25.08
2022-09-23T20:19:00.911Z,18.65
2022-09-23T20:21:29.431Z,19.05
2022-09-23T20:23:56.818Z,19.58
2022-09-23T20:26:41.909Z,17.58
2022-09-23T20:29:09.018Z,17.35
2022-09-23T20:31:35.978Z,20.27
2022-09-23T20:34:05.642Z,19.63
2022-09-23T20:36:33.317Z,19.00
2022-09-23T20:39:01.950Z,20.95
2022-09-23T20:41:30.275Z,16.05
2022-09-23T20:44:00.414Z,20.00
2022-09-23T20:46:28.551Z,17.40
2022-09-23T20:48:56.585Z,17.77
2022-09-23T20:51:24.727Z,21.52
2022-09-23T20:53:52.939Z,23.02
2022-09-23T20:56:21.160Z,17.50
2022-09-23T20:58:48.610Z,15.73
2022-09-23T21:01:15.749Z,18.65
2022-09-23T21:03:44.870Z,18.85
2022-09-23T21:06:13.945Z,15.43
2022-09-23T21:08:41.793Z,15.38
2022-09-23T21:11:11.168Z,16.73
2022-09-23T21:13:37.846Z,13.23
2022-09-23T21:16:06.915Z,15.90
2022-09-23T21:18:35.148Z,12.00
2022-09-23T21:21:02.243Z,12.73
2022-09-23T21:23:34.112Z,12.85
2022-09-23T21:26:23.187Z,11.63
2022-09-23T21:28:52.238Z,12.50
2022-09-23T21:31:27.584Z,13.00
2022-09-23T21:34:00.419Z,12.60
2022-09-23T21:36:42.755Z,13.82
2022-09-23T21:39:10.904Z,14.60
2022-09-23T21:41:38.355Z,13.05
2022-09-23T21:44:06.458Z,14.95
2022-09-23T21:46:33.901Z,14.30
2022-09-23T21:49:03.252Z,15.55
2022-09-23T21:51:40.288Z,16.27
2022-09-23T21:54:11.633Z,13.80
2022-09-23T21:56:38.224Z,14.88
2022-09-23T21:59:07.558Z,14.90
2022-09-23T22:01:36.975Z,14.35
2022-09-23T22:04:09.342Z,15.25
2022-09-23T22:06:38.346Z,14.00
2022-09-23T22:09:10.807Z,14.07
2022-09-23T22:11:57.854Z,14.40
2022-09-23T22:14:26.213Z,13.98
2022-09-23T22:16:57.582Z,14.63
2022-09-23T22:19:26.642Z,15.50
2022-09-23T22:21:55.808Z,16.10
2022-09-23T22:24:22.384Z,17.10
2022-09-23T22:26:48.921Z,15.73
2022-09-23T22:29:35.007Z,16.77
2022-09-23T22:32:21.781Z,16.15
2022-09-23T22:34:51.962Z,17.33
2022-09-23T22:37:25.983Z,16.33
2022-09-23T22:39:52.876Z,14.98
2022-09-23T22:42:22.381Z,16.23
2022-09-23T22:44:49.319Z,16.33
2022-09-23T22:47:17.575Z,13.73
2022-09-23T22:49:44.029Z,12.57
2022-09-23T22:52:11.288Z,13.23
2022-09-23T22:54:38.565Z,11.40
2022-09-23T22:57:06.603Z,11.88
2022-09-23T22:59:33.958Z,9.63
2022-09-23T23:02:02.492Z,11.25
2022-09-23T23:04:30.245Z,9.32
2022-09-23T23:06:58.631Z,9.85
2022-09-23T23:09:25.475Z,11.35
2022-09-23T23:11:51.989Z,9.55
2022-09-23T23:14:18.759Z,13.60
2022-09-23T23:16:46.173Z,8.65
2022-09-23T23:19:17.166Z,10.02
2022-09-23T23:21:44.894Z,10.95
2022-09-23T23:24:17.229Z,12.25
2022-09-23T23:26:43.959Z,10.55
2022-09-23T23:29:12.786Z,11.38
2022-09-23T23:31:39.946Z,11.00
2022-09-23T23:34:10.436Z,13.73
2022-09-23T23:36:36.980Z,12.65
2022-09-23T23:39:03.616Z,11.85
2022-09-23T23:41:30.151Z,13.18
2022-09-23T23:43:58.605Z,11.30
2022-09-23T23:46:27.588Z,10.95
2022-09-23T23:48:55.928Z,12.30
2022-09-23T23:51:23.004Z,12.40
2022-09-23T23:53:49.540Z,13.35
2022-09-23T23:56:18.511Z,16.05
2022-09-23T23:58:45.769Z,12.63
